Terminal Aerodrome Forecast
Issued by NWS

Home | Current Version | Previous Version | Text Only | Print | Product List | Glossary On
Versions: 1 2 3 4 5 6 7 8 9 10 11 12 13 14 15 16 17 18 19 20 21 22 23 24 25 26 27 28 29 30 31 32
000
FTUS41 KBUF 011700
TAFIAG
TAF
KIAG 011730Z 0118/0218 06012KT 6SM -SN BKN015 OVC023
     FM012000 06014KT 5SM -SN OVC020
     FM012300 07014KT 2SM -SN OVC015
     FM020500 07019G27KT 1/2SM SN BLSN OVC012
     FM021400 35015KT 2SM -SN BLSN OVC012=

USA.gov is the U.S. government's official web portal to all federal, state and local government web resources and services.